createdAt,value
2022-08-23T00:02:27.003Z,23.75
2022-08-23T00:05:09.469Z,23.73
2022-08-23T00:07:45.473Z,23.72
2022-08-23T00:10:17.203Z,23.71
2022-08-23T00:12:45.991Z,23.71
2022-08-23T00:15:18.818Z,23.69
2022-08-23T00:17:46.787Z,23.67
2022-08-23T00:20:18.150Z,23.65
2022-08-23T00:22:46.168Z,23.62
2022-08-23T00:25:16.547Z,23.55
2022-08-23T00:27:45.028Z,23.45
2022-08-23T00:30:15.120Z,23.41
2022-08-23T00:32:44.395Z,23.32
2022-08-23T00:35:26.549Z,23.22
2022-08-23T00:38:33.257Z,23.14
2022-08-23T00:40:51.023Z,23.05
2022-08-23T00:43:40.960Z,22.97
2022-08-23T00:46:38.676Z,22.89
2022-08-23T00:49:11.887Z,22.85
2022-08-23T00:51:53.217Z,22.81
2022-08-23T00:54:24.494Z,22.76
2022-08-23T00:56:55.675Z,22.68
2022-08-23T00:59:24.229Z,22.60
2022-08-23T01:01:53.479Z,22.53
2022-08-23T01:04:22.146Z,22.50
2022-08-23T01:06:56.337Z,22.44
2022-08-23T01:09:24.701Z,22.35
2022-08-23T01:11:59.997Z,22.29
2022-08-23T01:14:33.712Z,22.23
2022-08-23T01:17:06.283Z,22.18
2022-08-23T01:19:37.774Z,22.15
2022-08-23T01:22:13.430Z,22.06
2022-08-23T01:25:06.188Z,22.00
2022-08-23T01:27:34.326Z,21.94
2022-08-23T01:30:04.455Z,21.86
2022-08-23T01:32:32.973Z,21.81
2022-08-23T01:35:00.950Z,21.69
2022-08-23T01:37:29.398Z,21.60
2022-08-23T01:39:58.795Z,21.54
2022-08-23T01:42:28.187Z,21.45
2022-08-23T01:44:56.161Z,21.38
2022-08-23T01:47:24.228Z,21.27
2022-08-23T01:49:53.473Z,21.23
2022-08-23T01:52:21.530Z,21.13
2022-08-23T01:54:50.049Z,21.09
2022-08-23T01:57:19.423Z,21.02
2022-08-23T01:59:47.461Z,20.98
2022-08-23T02:02:15.751Z,20.89
2022-08-23T02:04:43.794Z,20.82
2022-08-23T02:07:11.959Z,20.74
2022-08-23T02:09:40.066Z,20.67
2022-08-23T02:12:08.570Z,20.63
2022-08-23T02:14:41.938Z,20.56
2022-08-23T02:17:17.802Z,20.50
2022-08-23T02:19:46.259Z,20.51
2022-08-23T02:22:14.610Z,20.47
2022-08-23T02:24:45.601Z,20.46
2022-08-23T02:27:15.774Z,20.41
2022-08-23T02:29:47.292Z,20.36
2022-08-23T02:32:17.951Z,20.31
2022-08-23T02:34:51.031Z,20.26
2022-08-23T02:37:32.366Z,20.21
2022-08-23T02:40:00.820Z,20.15
2022-08-23T02:42:29.349Z,20.06
2022-08-23T02:44:59.223Z,20.02
2022-08-23T02:47:27.236Z,19.98
2022-08-23T02:50:15.441Z,19.93
2022-08-23T02:52:45.076Z,19.89
2022-08-23T02:55:13.168Z,19.86
2022-08-23T02:57:41.381Z,19.76
2022-08-23T03:00:15.865Z,19.72
2022-08-23T03:02:44.805Z,19.66
2022-08-23T03:05:13.737Z,19.63
2022-08-23T03:07:44.246Z,19.57
2022-08-23T03:10:13.037Z,19.51
2022-08-23T03:12:47.276Z,19.47
2022-08-23T03:15:16.774Z,19.42
2022-08-23T03:17:47.301Z,19.39
2022-08-23T03:20:16.554Z,19.31
2022-08-23T03:22:48.257Z,19.28
2022-08-23T03:25:26.048Z,19.28
2022-08-23T03:28:05.099Z,19.28
2022-08-23T03:30:36.478Z,19.29
2022-08-23T03:33:06.049Z,19.24
2022-08-23T03:35:34.071Z,19.23
2022-08-23T03:38:03.289Z,19.22
2022-08-23T03:40:31.520Z,19.16
2022-08-23T03:42:59.589Z,19.14
2022-08-23T03:45:28.975Z,19.15
2022-08-23T03:47:58.730Z,19.20
2022-08-23T03:50:27.380Z,19.15
2022-08-23T03:52:56.097Z,19.13
2022-08-23T03:55:24.098Z,19.07
2022-08-23T03:57:52.850Z,19.03
2022-08-23T04:00:22.332Z,18.98
2022-08-23T04:02:53.154Z,18.93
2022-08-23T04:05:25.696Z,18.88
2022-08-23T04:07:53.711Z,18.81
2022-08-23T04:10:24.804Z,18.75
2022-08-23T04:12:55.717Z,18.69
2022-08-23T04:15:24.915Z,18.65
2022-08-23T04:17:53.128Z,18.63
2022-08-23T04:20:22.684Z,18.53
2022-08-23T04:23:03.440Z,18.52
2022-08-23T04:25:36.283Z,18.50
2022-08-23T04:28:06.814Z,18.51
2022-08-23T04:30:35.549Z,18.48
2022-08-23T04:33:04.525Z,18.48
2022-08-23T04:35:41.369Z,18.45
2022-08-23T04:38:18.262Z,18.40
2022-08-23T04:41:13.409Z,18.37
2022-08-23T04:43:42.470Z,18.39
2022-08-23T04:46:14.551Z,18.34
2022-08-23T04:48:46.967Z,18.34
2022-08-23T04:51:16.606Z,18.36
2022-08-23T04:53:46.080Z,18.36
2022-08-23T04:56:34.456Z,18.35
2022-08-23T04:59:03.057Z,18.32
2022-08-23T05:01:31.781Z,18.32
2022-08-23T05:04:00.212Z,18.30
2022-08-23T05:06:28.910Z,18.30
2022-08-23T05:08:59.010Z,18.27
2022-08-23T05:11:29.163Z,18.25
2022-08-23T05:13:57.258Z,18.26
2022-08-23T05:16:25.409Z,18.26
2022-08-23T05:18:59.387Z,18.32
2022-08-23T05:21:27.557Z,18.39
2022-08-23T05:23:55.789Z,18.37
2022-08-23T05:26:28.030Z,18.39
2022-08-23T05:28:58.265Z,18.42
2022-08-23T05:31:31.631Z,18.45
2022-08-23T05:34:02.796Z,18.43
2022-08-23T05:36:38.218Z,18.42
2022-08-23T05:39:24.105Z,18.48
2022-08-23T05:42:13.005Z,18.52
2022-08-23T05:44:42.007Z,18.59
2022-08-23T05:47:17.064Z,18.68
2022-08-23T05:49:56.114Z,18.75
2022-08-23T05:52:26.165Z,18.81
2022-08-23T05:54:54.276Z,18.85
2022-08-23T05:57:43.188Z,18.94
2022-08-23T06:00:17.364Z,19.02
2022-08-23T06:02:49.186Z,19.10
2022-08-23T06:05:19.540Z,19.15
2022-08-23T06:07:59.079Z,19.24
2022-08-23T06:10:29.371Z,19.35
2022-08-23T06:13:04.956Z,19.46
2022-08-23T06:15:33.309Z,19.57
2022-08-23T06:18:01.297Z,19.66
2022-08-23T06:20:29.961Z,19.71
2022-08-23T06:23:00.099Z,19.76
2022-08-23T06:25:28.953Z,19.85
2022-08-23T06:28:08.700Z,19.96
2022-08-23T06:30:40.113Z,19.99
2022-08-23T06:33:27.292Z,20.01
2022-08-23T06:36:07.150Z,20.08
2022-08-23T06:38:58.131Z,20.22
2022-08-23T06:42:00.663Z,20.32
2022-08-23T06:44:32.653Z,20.40
2022-08-23T06:47:13.289Z,20.49
2022-08-23T06:49:41.426Z,20.59
2022-08-23T06:52:31.175Z,20.67
2022-08-23T06:55:21.827Z,20.79
2022-08-23T06:58:16.215Z,20.91
2022-08-23T07:01:44.768Z,21.03
2022-08-23T07:04:24.530Z,21.12
2022-08-23T07:07:12.467Z,21.21
2022-08-23T07:09:42.044Z,21.30
2022-08-23T07:12:12.128Z,21.38
2022-08-23T07:14:44.097Z,21.49
2022-08-23T07:17:14.777Z,21.56
2022-08-23T07:19:44.310Z,21.63
2022-08-23T07:22:12.635Z,21.74
2022-08-23T07:24:42.958Z,21.85
2022-08-23T07:27:12.314Z,21.90
2022-08-23T07:30:10.131Z,22.00
2022-08-23T07:32:42.487Z,22.09
2022-08-23T07:35:26.428Z,22.22
2022-08-23T07:37:57.278Z,22.33
2022-08-23T07:40:30.154Z,22.43
2022-08-23T07:43:03.133Z,22.56
2022-08-23T07:45:35.212Z,22.70
2022-08-23T07:48:05.786Z,22.86
2022-08-23T07:50:51.076Z,22.96
2022-08-23T07:53:37.760Z,23.18
2022-08-23T07:56:08.834Z,23.26
2022-08-23T07:58:55.186Z,23.31
2022-08-23T08:01:49.083Z,23.39
2022-08-23T08:04:18.554Z,23.42
2022-08-23T08:07:10.445Z,23.50
2022-08-23T08:09:43.530Z,23.61
2022-08-23T08:12:11.752Z,23.76
2022-08-23T08:14:43.655Z,23.89
2022-08-23T08:17:14.063Z,24.07
2022-08-23T08:20:14.138Z,24.21
2022-08-23T08:23:06.216Z,24.35
2022-08-23T08:26:02.149Z,24.55
2022-08-23T08:28:31.250Z,24.70
2022-08-23T08:30:59.772Z,24.91
2022-08-23T08:33:30.810Z,25.18
2022-08-23T08:36:00.992Z,25.43
2022-08-23T08:38:31.167Z,25.66
2022-08-23T08:41:06.549Z,25.88
2022-08-23T08:43:48.801Z,26.05
2022-08-23T08:46:25.771Z,26.30
2022-08-23T08:48:59.325Z,26.48
2022-08-23T08:51:42.383Z,26.66
2022-08-23T08:54:14.707Z,26.86
2022-08-23T08:56:50.784Z,26.95
2022-08-23T08:59:29.988Z,26.97
2022-08-23T09:01:59.323Z,26.99
2022-08-23T09:04:37.243Z,27.19
2022-08-23T09:07:15.980Z,27.31
2022-08-23T09:10:27.026Z,27.39
2022-08-23T09:13:22.975Z,27.46
2022-08-23T09:16:06.525Z,27.45
2022-08-23T09:18:38.367Z,27.43
2022-08-23T09:21:08.869Z,27.37
2022-08-23T09:23:43.123Z,27.32
2022-08-23T09:26:22.042Z,27.32
2022-08-23T09:29:00.612Z,27.31
2022-08-23T09:31:41.291Z,27.37
2022-08-23T09:34:12.081Z,27.24
2022-08-23T09:36:52.404Z,27.22
2022-08-23T09:39:31.890Z,27.20
2022-08-23T09:42:09.555Z,27.35
2022-08-23T09:44:42.582Z,27.48
2022-08-23T09:47:16.977Z,27.52
2022-08-23T09:49:51.442Z,27.61
2022-08-23T09:52:26.098Z,27.80
2022-08-23T09:55:06.235Z,28.01
2022-08-23T09:57:40.081Z,28.19
2022-08-23T10:00:24.832Z,28.30
2022-08-23T10:02:57.600Z,28.37
2022-08-23T10:05:37.061Z,28.44
2022-08-23T10:08:10.264Z,28.51
2022-08-23T10:10:51.044Z,28.55
2022-08-23T10:13:23.271Z,28.50
2022-08-23T10:16:00.873Z,28.45
2022-08-23T10:18:44.717Z,28.41
2022-08-23T10:21:24.395Z,28.37
2022-08-23T10:24:12.586Z,28.39
2022-08-23T10:26:50.594Z,28.36
2022-08-23T10:29:37.975Z,28.38
2022-08-23T10:32:18.829Z,28.44
2022-08-23T10:35:07.555Z,28.56
2022-08-23T10:37:47.031Z,28.67
2022-08-23T10:40:20.780Z,28.73
2022-08-23T10:43:03.151Z,28.86
2022-08-23T10:45:36.042Z,28.87
2022-08-23T10:48:26.590Z,28.98
2022-08-23T10:50:58.497Z,29.07
2022-08-23T10:53:36.490Z,29.17
2022-08-23T10:56:07.883Z,29.15
2022-08-23T10:58:49.364Z,29.20
2022-08-23T11:01:26.467Z,29.30
2022-08-23T11:04:03.159Z,29.40
2022-08-23T11:06:48.731Z,29.48
2022-08-23T11:09:36.842Z,29.60
2022-08-23T11:12:26.913Z,29.62
2022-08-23T11:15:25.074Z,29.60
2022-08-23T11:18:03.301Z,29.66
2022-08-23T11:21:13.499Z,29.74
2022-08-23T11:23:51.965Z,29.77
2022-08-23T11:27:07.140Z,29.88
2022-08-23T11:29:43.719Z,29.98
2022-08-23T11:32:41.560Z,30.15
2022-08-23T11:35:31.066Z,30.19
2022-08-23T11:38:04.982Z,30.27
2022-08-23T11:41:00.915Z,30.33
2022-08-23T11:43:39.187Z,30.39
2022-08-23T11:46:30.401Z,30.48
2022-08-23T11:49:31.982Z,30.55
2022-08-23T11:52:11.216Z,30.58
2022-08-23T11:54:57.137Z,30.55
2022-08-23T11:57:37.650Z,30.65
2022-08-23T12:00:17.817Z,30.82
2022-08-23T12:03:03.027Z,31.03
2022-08-23T12:06:21.422Z,31.13
2022-08-23T12:08:55.759Z,31.26
2022-08-23T12:11:26.589Z,31.35
2022-08-23T12:14:22.384Z,31.48
2022-08-23T12:16:51.050Z,31.55
2022-08-23T12:19:39.490Z,31.61
2022-08-23T12:22:14.523Z,31.71
2022-08-23T12:24:47.469Z,31.80
2022-08-23T12:27:29.674Z,31.93
2022-08-23T12:30:03.914Z,32.06
2022-08-23T12:32:40.069Z,32.21
2022-08-23T12:35:27.287Z,32.38
2022-08-23T12:38:04.266Z,32.57
2022-08-23T12:40:36.541Z,32.73
2022-08-23T12:43:11.790Z,32.88
2022-08-23T12:45:49.793Z,32.95
2022-08-23T12:48:22.943Z,33.05
2022-08-23T12:50:56.157Z,33.17
2022-08-23T12:53:31.135Z,33.24
2022-08-23T12:56:03.920Z,33.38
2022-08-23T12:58:33.930Z,33.43
2022-08-23T13:01:05.659Z,33.63
2022-08-23T13:03:36.130Z,33.66
2022-08-23T13:06:07.916Z,33.78
2022-08-23T13:08:46.970Z,33.99
2022-08-23T13:11:19.758Z,34.19
2022-08-23T13:13:48.830Z,34.36
2022-08-23T13:16:30.908Z,34.15
2022-08-23T13:19:16.768Z,34.03
2022-08-23T13:21:45.622Z,34.15
2022-08-23T13:24:37.754Z,34.31
2022-08-23T13:27:16.151Z,34.24
2022-08-23T13:29:56.219Z,34.38
2022-08-23T13:32:31.703Z,34.34
2022-08-23T13:35:36.075Z,34.35
2022-08-23T13:38:20.485Z,34.10
2022-08-23T13:40:57.160Z,33.88
2022-08-23T13:43:29.605Z,33.87
2022-08-23T13:46:00.961Z,33.81
2022-08-23T13:48:33.923Z,33.95
2022-08-23T13:51:24.925Z,33.75
2022-08-23T13:53:53.407Z,33.56
2022-08-23T13:56:26.444Z,33.40
2022-08-23T13:58:57.404Z,33.48
2022-08-23T14:01:26.357Z,33.77
2022-08-23T14:03:54.585Z,33.97
2022-08-23T14:06:25.478Z,34.04
2022-08-23T14:08:53.786Z,34.28
2022-08-23T14:11:21.926Z,34.52
2022-08-23T14:13:54.044Z,34.58
2022-08-23T14:16:34.965Z,34.59
2022-08-23T14:21:54.356Z,34.97
2022-08-23T14:24:22.230Z,34.95
2022-08-23T14:26:53.011Z,34.70
2022-08-23T14:29:27.875Z,34.34
2022-08-23T14:31:57.531Z,34.09
2022-08-23T14:34:26.886Z,34.26
2022-08-23T14:39:43.213Z,35.07
2022-08-23T14:42:17.693Z,35.46
2022-08-23T14:44:47.266Z,35.91
2022-08-23T14:47:15.469Z,35.89
2022-08-23T14:49:43.420Z,35.42
2022-08-23T14:52:14.146Z,34.91
2022-08-23T14:54:42.854Z,34.57
2022-08-23T14:57:10.942Z,34.33
2022-08-23T14:59:39.063Z,34.25
2022-08-23T15:02:12.146Z,34.44
2022-08-23T15:04:41.639Z,34.84
2022-08-23T15:07:18.521Z,35.27
2022-08-23T15:09:47.137Z,35.58
2022-08-23T15:15:03.257Z,35.81
2022-08-23T15:17:32.825Z,35.99
2022-08-23T15:20:03.619Z,36.08
2022-08-23T15:22:31.705Z,36.26
2022-08-23T15:25:00.410Z,36.62
2022-08-23T15:27:31.186Z,36.87
2022-08-23T15:30:00.474Z,37.08
2022-08-23T15:32:28.524Z,37.17
2022-08-23T15:35:01.778Z,36.96
2022-08-23T15:37:30.453Z,37.09
2022-08-23T15:39:58.503Z,37.36
2022-08-23T15:42:26.695Z,37.24
2022-08-23T15:44:54.793Z,37.47
2022-08-23T15:47:25.862Z,37.84
2022-08-23T15:49:53.967Z,38.31
2022-08-23T15:52:23.285Z,38.46
2022-08-23T15:54:54.342Z,38.86
2022-08-23T15:57:27.297Z,39.21
2022-08-23T15:59:56.457Z,39.15
2022-08-23T16:02:26.971Z,39.39
2022-08-23T16:04:55.186Z,39.55
2022-08-23T16:07:24.523Z,39.87
2022-08-23T16:09:52.779Z,40.12
2022-08-23T16:12:20.674Z,40.41
2022-08-23T16:14:48.720Z,40.48
2022-08-23T16:17:16.678Z,40.59
2022-08-23T16:19:44.714Z,40.62
2022-08-23T16:22:16.292Z,40.81
2022-08-23T16:24:46.053Z,41.85
2022-08-23T16:27:14.079Z,43.12
2022-08-23T16:29:42.092Z,42.69
2022-08-23T16:32:10.501Z,42.30
2022-08-23T16:34:42.915Z,41.75
2022-08-23T16:37:13.250Z,41.25
2022-08-23T16:39:41.518Z,40.08
2022-08-23T16:42:10.788Z,39.18
2022-08-23T16:44:39.043Z,38.75
2022-08-23T16:47:09.787Z,38.74
2022-08-23T16:49:41.218Z,38.25
2022-08-23T16:52:10.446Z,37.71
2022-08-23T16:54:38.781Z,37.13
2022-08-23T16:57:06.951Z,36.51
2022-08-23T16:59:40.444Z,35.95
2022-08-23T17:02:19.433Z,35.80
2022-08-23T17:04:52.140Z,36.00
2022-08-23T17:07:20.707Z,35.93
2022-08-23T17:09:49.137Z,35.40
2022-08-23T17:12:17.902Z,34.90
2022-08-23T17:14:48.932Z,34.46
2022-08-23T17:17:17.147Z,34.07
2022-08-23T17:19:48.263Z,33.69
2022-08-23T17:22:16.699Z,33.34
2022-08-23T17:24:47.005Z,33.04
2022-08-23T17:27:19.077Z,32.74
2022-08-23T17:29:49.186Z,32.46
2022-08-23T17:32:22.102Z,32.21
2022-08-23T17:34:51.598Z,31.99
2022-08-23T17:37:22.046Z,31.78
2022-08-23T17:39:53.234Z,31.63
2022-08-23T17:42:21.720Z,31.49
2022-08-23T17:44:53.606Z,31.32
2022-08-23T17:47:21.642Z,31.16
2022-08-23T17:49:50.151Z,30.97
2022-08-23T17:52:18.969Z,30.82
2022-08-23T17:54:46.982Z,30.62
2022-08-23T17:57:15.235Z,30.47
2022-08-23T17:59:44.023Z,30.33
2022-08-23T18:02:16.196Z,30.17
2022-08-23T18:04:44.408Z,29.98
2022-08-23T18:07:12.444Z,29.82
2022-08-23T18:09:46.505Z,29.64
2022-08-23T18:12:16.970Z,29.46
2022-08-23T18:14:44.982Z,29.26
2022-08-23T18:17:12.922Z,29.09
2022-08-23T18:19:45.125Z,28.92
2022-08-23T18:22:13.114Z,28.79
2022-08-23T18:24:41.104Z,28.62
2022-08-23T18:27:26.307Z,28.46
2022-08-23T18:29:54.352Z,28.31
2022-08-23T18:32:23.078Z,28.18
2022-08-23T18:34:52.556Z,28.06
2022-08-23T18:37:21.600Z,27.91
2022-08-23T18:39:52.246Z,27.76
2022-08-23T18:42:20.451Z,27.64
2022-08-23T18:44:48.541Z,27.52
2022-08-23T18:47:16.427Z,27.39
2022-08-23T18:49:44.521Z,27.27
2022-08-23T18:52:13.813Z,27.15
2022-08-23T18:54:41.894Z,27.05
2022-08-23T18:57:15.836Z,26.95
2022-08-23T18:59:44.456Z,26.88
2022-08-23T19:02:14.983Z,26.75
2022-08-23T19:04:46.070Z,26.65
2022-08-23T19:07:15.633Z,26.57
2022-08-23T19:09:43.798Z,26.46
2022-08-23T19:12:11.869Z,26.39
2022-08-23T19:14:40.877Z,26.28
2022-08-23T19:17:08.953Z,26.20
2022-08-23T19:19:37.274Z,26.11
2022-08-23T19:22:07.616Z,26.02
2022-08-23T19:24:36.935Z,25.94
2022-08-23T19:27:05.699Z,25.84
2022-08-23T19:29:34.592Z,25.76
2022-08-23T19:32:04.099Z,25.70
2022-08-23T19:34:32.205Z,25.62
2022-08-23T19:37:01.733Z,25.53
2022-08-23T19:39:32.763Z,25.45
2022-08-23T19:42:02.718Z,25.36
2022-08-23T19:44:32.605Z,25.32
2022-08-23T19:47:00.584Z,25.26
2022-08-23T19:49:29.085Z,25.22
2022-08-23T19:52:02.258Z,25.16
2022-08-23T19:54:30.397Z,25.09
2022-08-23T19:57:00.874Z,25.03
2022-08-23T19:59:34.690Z,24.90
2022-08-23T20:02:03.422Z,24.82
2022-08-23T20:04:35.257Z,24.78
2022-08-23T20:07:04.710Z,24.71
2022-08-23T20:09:33.545Z,24.66
2022-08-23T20:12:02.265Z,24.60
2022-08-23T20:14:33.150Z,24.57
2022-08-23T20:17:04.349Z,24.54
2022-08-23T20:19:32.356Z,24.51
2022-08-23T20:22:20.361Z,24.44
2022-08-23T20:24:52.017Z,24.40
2022-08-23T20:27:28.323Z,24.34
2022-08-23T20:30:01.801Z,24.29
2022-08-23T20:32:31.142Z,24.24
2022-08-23T20:35:02.632Z,24.21
2022-08-23T20:37:30.819Z,24.17
2022-08-23T20:39:59.248Z,24.16
2022-08-23T20:42:27.832Z,24.08
2022-08-23T20:44:55.887Z,24.04
2022-08-23T20:47:25.290Z,23.97
2022-08-23T20:49:53.345Z,23.94
2022-08-23T20:52:21.358Z,23.90
2022-08-23T20:54:49.615Z,23.84
2022-08-23T20:57:17.604Z,23.78
2022-08-23T20:59:45.636Z,23.74
2022-08-23T21:02:15.743Z,23.69
2022-08-23T21:04:45.097Z,23.61
2022-08-23T21:07:13.141Z,23.52
2022-08-23T21:09:41.652Z,23.50
2022-08-23T21:12:09.925Z,23.51
2022-08-23T21:14:37.913Z,23.46
2022-08-23T21:17:06.544Z,23.41
2022-08-23T21:19:34.698Z,23.43
2022-08-23T21:22:04.068Z,23.42
2022-08-23T21:24:32.145Z,23.42
2022-08-23T21:26:59.996Z,23.41
2022-08-23T21:29:28.184Z,23.36
2022-08-23T21:31:56.057Z,23.37
2022-08-23T21:34:26.511Z,23.35
2022-08-23T21:36:54.706Z,23.31
2022-08-23T21:39:24.018Z,23.28
2022-08-23T21:41:51.977Z,23.26
2022-08-23T21:44:22.010Z,23.26
2022-08-23T21:46:50.131Z,23.25
2022-08-23T21:49:20.787Z,23.24
2022-08-23T21:51:53.535Z,23.25
2022-08-23T21:54:22.528Z,23.23
2022-08-23T21:56:51.990Z,23.25
2022-08-23T21:59:20.774Z,23.26
2022-08-23T22:01:48.848Z,23.26
2022-08-23T22:04:17.290Z,23.22
2022-08-23T22:06:47.608Z,23.20
2022-08-23T22:09:18.103Z,23.18
2022-08-23T22:11:47.806Z,23.19
2022-08-23T22:14:21.341Z,23.16
2022-08-23T22:16:51.597Z,23.11
2022-08-23T22:19:23.929Z,23.08
2022-08-23T22:21:53.048Z,23.05
2022-08-23T22:24:25.459Z,23.01
2022-08-23T22:26:57.312Z,22.94
2022-08-23T22:29:26.662Z,22.85
2022-08-23T22:31:54.520Z,22.80
2022-08-23T22:34:25.378Z,22.76
2022-08-23T22:36:57.778Z,22.68
2022-08-23T22:39:26.120Z,22.56
2022-08-23T22:41:54.911Z,22.56
2022-08-23T22:44:22.914Z,22.49
2022-08-23T22:46:52.637Z,22.46
2022-08-23T22:49:20.599Z,22.43
2022-08-23T22:51:49.622Z,22.44
2022-08-23T22:54:23.260Z,22.39
2022-08-23T22:56:53.139Z,22.38
2022-08-23T22:59:27.867Z,22.36
2022-08-23T23:02:04.057Z,22.39
2022-08-23T23:04:33.906Z,22.42
2022-08-23T23:07:02.799Z,22.48
2022-08-23T23:09:30.779Z,22.52
2022-08-23T23:12:00.966Z,22.55
2022-08-23T23:14:28.945Z,22.57
2022-08-23T23:16:57.226Z,22.60
2022-08-23T23:19:45.803Z,22.58
2022-08-23T23:22:14.727Z,22.56
2022-08-23T23:24:42.663Z,22.50
2022-08-23T23:27:10.729Z,22.51
2022-08-23T23:29:42.030Z,22.50
2022-08-23T23:32:10.119Z,22.49
2022-08-23T23:34:39.423Z,22.47
2022-08-23T23:37:07.418Z,22.43
2022-08-23T23:39:37.845Z,22.43
2022-08-23T23:42:06.310Z,22.44
2022-08-23T23:44:34.188Z,22.40
2022-08-23T23:47:02.750Z,22.37
2022-08-23T23:49:33.762Z,22.35
2022-08-23T23:52:05.842Z,22.32
2022-08-23T23:54:38.473Z,22.33
2022-08-23T23:57:08.154Z,22.34
2022-08-23T23:59:36.845Z,22.30
